South Benfleet, United Kingdom
Current Conditions -  °F | °C
As of 4:20 AM on Friday 28 Nov 2014 (Local Time) from EGMC Reporting Station
Broken Clouds Broken Clouds  
Wind Chill: 52°   Ceiling: 1300
Heat Index: 52°   Visibility: 4mi
Dew Point: 48°   Wind: 7mph
Humidity: 88%   Direction: 100°E
Pressure: 29.59"   Gusts: NA
Location:  51.55°N, 0.56°E
Report Text: EGMC 280420Z 10006KT 7000 SCT009 BKN013 11/09 Q1002
Loading
Personal Weather Stations






























Interactive Weather Map New forecast layout! Learn more

10-Day Weather Forecast

Advertisements
Track Severe Weather on mobile